createdAt,value
2022-07-29T00:00:01.157Z,60.58
2022-07-29T00:02:28.814Z,60.52
2022-07-29T00:04:55.672Z,60.52
2022-07-29T00:07:22.167Z,60.62
2022-07-29T00:09:51.983Z,60.99
2022-07-29T00:12:21.395Z,61.15
2022-07-29T00:14:53.071Z,61.25
2022-07-29T00:17:19.487Z,61.08
2022-07-29T00:19:45.958Z,61.11
2022-07-29T00:22:12.378Z,61.15
2022-07-29T00:24:38.800Z,61.29
2022-07-29T00:27:05.272Z,61.35
2022-07-29T00:29:33.925Z,61.34
2022-07-29T00:32:01.476Z,61.10
2022-07-29T00:34:46.775Z,61.69
2022-07-29T00:37:13.225Z,62.06
2022-07-29T00:39:39.706Z,62.29
2022-07-29T00:42:06.571Z,62.21
2022-07-29T00:44:37.795Z,62.41
2022-07-29T00:47:04.358Z,62.34
2022-07-29T00:49:30.892Z,62.71
2022-07-29T00:51:58.177Z,62.77
2022-07-29T00:54:24.725Z,62.97
2022-07-29T00:56:51.173Z,62.70
2022-07-29T00:59:17.616Z,63.08
2022-07-29T01:01:44.138Z,62.80
2022-07-29T01:04:10.745Z,63.06
2022-07-29T01:06:37.506Z,62.64
2022-07-29T01:09:04.252Z,63.00
2022-07-29T01:11:30.697Z,63.04
2022-07-29T01:13:57.859Z,63.03
2022-07-29T01:16:43.121Z,63.06
2022-07-29T01:19:49.917Z,62.43
2022-07-29T01:22:29.856Z,62.74
2022-07-29T01:25:33.143Z,63.38
2022-07-29T01:28:18.239Z,63.47
2022-07-29T01:30:47.415Z,63.42
2022-07-29T01:33:38.313Z,63.30
2022-07-29T01:36:12.903Z,63.62
2022-07-29T01:38:42.275Z,63.56
2022-07-29T01:41:17.429Z,63.60
2022-07-29T01:43:57.110Z,63.63
2022-07-29T01:46:32.999Z,63.37
2022-07-29T01:49:09.576Z,63.60
2022-07-29T01:51:55.359Z,63.89
2022-07-29T01:54:38.270Z,63.91
2022-07-29T01:57:07.795Z,63.77
2022-07-29T01:59:37.532Z,63.66
2022-07-29T02:02:07.236Z,63.94
2022-07-29T02:04:36.818Z,63.94
2022-07-29T02:07:07.002Z,64.02
2022-07-29T02:09:36.883Z,64.16
2022-07-29T02:12:04.910Z,64.11
2022-07-29T02:14:39.419Z,64.07
2022-07-29T02:17:06.116Z,64.09
2022-07-29T02:19:34.518Z,64.01
2022-07-29T02:22:02.575Z,63.98
2022-07-29T02:24:30.829Z,64.03
2022-07-29T02:27:00.423Z,64.43
2022-07-29T02:29:29.489Z,64.30
2022-07-29T02:31:58.015Z,63.90
2022-07-29T02:34:25.568Z,64.10
2022-07-29T02:36:53.156Z,64.14
2022-07-29T02:39:20.737Z,64.34
2022-07-29T02:41:59.644Z,64.33
2022-07-29T02:44:31.284Z,64.56
2022-07-29T02:47:12.289Z,64.39
2022-07-29T02:49:56.162Z,64.21
2022-07-29T02:53:06.648Z,64.39
2022-07-29T02:55:38.311Z,64.30
2022-07-29T02:58:14.461Z,64.67
2022-07-29T03:00:41.918Z,64.63
2022-07-29T03:03:17.026Z,64.63
2022-07-29T03:05:43.798Z,64.60
2022-07-29T03:08:12.579Z,64.63
2022-07-29T03:10:46.478Z,64.75
2022-07-29T03:13:14.104Z,64.63
2022-07-29T03:15:40.923Z,64.91
2022-07-29T03:18:07.927Z,64.45
2022-07-29T03:20:34.498Z,64.62
2022-07-29T03:23:01.258Z,64.57
2022-07-29T03:25:28.352Z,64.99
2022-07-29T03:27:54.987Z,65.06
2022-07-29T03:30:22.227Z,64.93
2022-07-29T03:32:52.080Z,64.82
2022-07-29T03:35:20.421Z,64.81
2022-07-29T03:37:47.261Z,65.09
2022-07-29T03:40:19.110Z,64.93
2022-07-29T03:42:46.671Z,65.18
2022-07-29T03:45:19.070Z,65.25
2022-07-29T03:47:57.073Z,65.22
2022-07-29T03:50:26.757Z,64.98
2022-07-29T03:52:53.493Z,65.15
2022-07-29T03:55:20.234Z,65.03
2022-07-29T03:57:48.281Z,65.12
2022-07-29T04:00:16.414Z,65.29
2022-07-29T04:02:49.142Z,65.26
2022-07-29T04:05:16.930Z,65.15
2022-07-29T04:07:48.016Z,65.17
2022-07-29T04:10:16.710Z,65.03
2022-07-29T04:12:43.691Z,65.10
2022-07-29T04:15:10.744Z,65.20
2022-07-29T04:17:37.527Z,65.18
2022-07-29T04:20:05.033Z,65.31
2022-07-29T04:22:31.721Z,65.25
2022-07-29T04:25:03.348Z,65.22
2022-07-29T04:27:30.532Z,65.20
2022-07-29T04:29:57.609Z,65.15
2022-07-29T04:32:24.860Z,65.25
2022-07-29T04:34:51.540Z,65.36
2022-07-29T04:37:18.191Z,65.46
2022-07-29T04:39:44.653Z,65.28
2022-07-29T04:42:11.098Z,65.08
2022-07-29T04:44:39.703Z,65.33
2022-07-29T04:47:09.848Z,65.18
2022-07-29T04:49:39.021Z,65.34
2022-07-29T04:52:06.572Z,65.13
2022-07-29T04:54:33.146Z,65.13
2022-07-29T04:56:59.597Z,65.38
2022-07-29T04:59:27.584Z,65.37
2022-07-29T05:01:54.137Z,65.25
2022-07-29T05:04:21.010Z,65.42
2022-07-29T05:06:48.677Z,65.41
2022-07-29T05:09:15.339Z,65.38
2022-07-29T05:11:41.792Z,65.41
2022-07-29T05:14:08.245Z,65.36
2022-07-29T05:16:34.972Z,65.55
2022-07-29T05:19:01.517Z,65.71
2022-07-29T05:21:27.966Z,65.53
2022-07-29T05:23:54.406Z,65.40
2022-07-29T05:26:22.042Z,65.07
2022-07-29T05:28:48.558Z,65.04
2022-07-29T05:31:15.839Z,64.96
2022-07-29T05:33:42.578Z,64.99
2022-07-29T05:36:09.633Z,64.82
2022-07-29T05:38:37.040Z,64.64
2022-07-29T05:41:03.886Z,64.29
2022-07-29T05:43:30.908Z,64.15
2022-07-29T05:45:57.792Z,64.14
2022-07-29T05:48:24.722Z,64.05
2022-07-29T05:50:51.210Z,64.11
2022-07-29T05:53:19.597Z,63.94
2022-07-29T05:55:46.811Z,63.65
2022-07-29T05:58:13.449Z,63.86
2022-07-29T06:00:39.888Z,63.47
2022-07-29T06:03:06.482Z,63.16
2022-07-29T06:05:32.975Z,62.58
2022-07-29T06:07:59.439Z,62.59
2022-07-29T06:10:26.318Z,61.85
2022-07-29T06:12:53.768Z,61.94
2022-07-29T06:15:20.520Z,61.53
2022-07-29T06:18:00.853Z,61.71
2022-07-29T06:20:32.283Z,61.50
2022-07-29T06:22:59.138Z,61.55
2022-07-29T06:25:25.847Z,61.38
2022-07-29T06:27:53.256Z,61.39
2022-07-29T06:30:19.755Z,61.19
2022-07-29T06:32:46.233Z,61.33
2022-07-29T06:35:37.689Z,61.43
2022-07-29T06:37:59.993Z,61.74
2022-07-29T06:40:45.491Z,62.02
2022-07-29T06:43:11.973Z,61.98
2022-07-29T06:45:42.160Z,61.92
2022-07-29T06:48:08.743Z,61.72
2022-07-29T06:50:35.150Z,61.43
2022-07-29T06:53:01.561Z,61.04
2022-07-29T06:55:28.275Z,61.19
2022-07-29T06:57:54.671Z,61.19
2022-07-29T07:00:21.434Z,60.82
2022-07-29T07:02:47.886Z,60.98
2022-07-29T07:05:14.449Z,60.99
2022-07-29T07:07:40.854Z,60.14
2022-07-29T07:10:07.689Z,59.41
2022-07-29T07:12:34.141Z,58.73
2022-07-29T07:15:00.853Z,58.62
2022-07-29T07:17:27.300Z,57.74
2022-07-29T07:19:53.760Z,57.42
2022-07-29T07:22:20.246Z,56.51
2022-07-29T07:24:46.681Z,56.24
2022-07-29T07:27:13.156Z,55.74
2022-07-29T07:29:42.051Z,55.55
2022-07-29T07:32:11.044Z,54.97
2022-07-29T07:34:38.769Z,54.95
2022-07-29T07:37:06.551Z,54.63
2022-07-29T07:39:33.036Z,54.14
2022-07-29T07:41:59.629Z,53.82
2022-07-29T07:44:26.106Z,53.67
2022-07-29T07:46:52.670Z,53.69
2022-07-29T07:49:19.647Z,53.67
2022-07-29T07:51:50.867Z,53.27
2022-07-29T07:54:18.434Z,52.85
2022-07-29T07:56:49.943Z,52.70
2022-07-29T07:59:19.453Z,52.60
2022-07-29T08:01:47.992Z,52.58
2022-07-29T08:04:27.502Z,52.66
2022-07-29T08:06:55.245Z,52.90
2022-07-29T08:09:29.445Z,52.77
2022-07-29T08:11:57.592Z,53.15
2022-07-29T08:14:24.058Z,52.86
2022-07-29T08:16:50.811Z,52.47
2022-07-29T08:19:17.488Z,52.61
2022-07-29T08:21:43.925Z,52.61
2022-07-29T08:24:28.864Z,52.41
2022-07-29T08:26:55.533Z,52.04
2022-07-29T08:29:22.019Z,51.57
2022-07-29T08:31:48.498Z,51.26
2022-07-29T08:34:15.148Z,50.73
2022-07-29T08:36:41.686Z,50.09
2022-07-29T08:39:08.285Z,49.52
2022-07-29T08:41:34.869Z,50.18
2022-07-29T08:44:01.329Z,50.14
2022-07-29T08:46:27.868Z,49.77
2022-07-29T08:48:55.673Z,49.47
2022-07-29T08:51:22.680Z,49.02
2022-07-29T08:53:51.216Z,48.61
2022-07-29T08:56:19.749Z,48.51
2022-07-29T08:58:52.288Z,48.35
2022-07-29T09:01:35.129Z,48.35
2022-07-29T09:04:05.580Z,47.92
2022-07-29T09:06:34.311Z,47.65
2022-07-29T09:09:01.376Z,47.21
2022-07-29T09:11:28.167Z,46.36
2022-07-29T09:13:55.068Z,46.02
2022-07-29T09:16:50.955Z,43.89
2022-07-29T09:19:21.415Z,43.99
2022-07-29T09:22:00.121Z,43.70
2022-07-29T09:24:40.124Z,43.95
2022-07-29T09:27:20.743Z,44.14
2022-07-29T09:29:47.740Z,43.97
2022-07-29T09:32:14.340Z,43.34
2022-07-29T09:34:40.811Z,43.22
2022-07-29T09:37:07.362Z,42.49
2022-07-29T09:39:37.355Z,42.54
2022-07-29T09:42:06.257Z,42.42
2022-07-29T09:44:44.094Z,43.25
2022-07-29T09:47:10.957Z,42.30
2022-07-29T09:49:52.706Z,42.18
2022-07-29T09:52:19.198Z,41.78
2022-07-29T09:54:45.925Z,42.12
2022-07-29T09:57:30.883Z,42.16
2022-07-29T10:00:06.380Z,42.27
2022-07-29T10:02:35.176Z,42.47
2022-07-29T10:05:04.882Z,42.36
2022-07-29T10:07:57.351Z,41.79
2022-07-29T10:10:30.441Z,41.99
2022-07-29T10:13:04.405Z,42.46
2022-07-29T10:15:52.310Z,42.71
2022-07-29T10:18:20.988Z,42.27
2022-07-29T10:20:47.892Z,41.63
2022-07-29T10:23:14.973Z,41.73
2022-07-29T10:25:52.880Z,41.91
2022-07-29T10:28:19.308Z,42.03
2022-07-29T10:30:47.774Z,41.67
2022-07-29T10:33:38.284Z,41.46
2022-07-29T10:36:17.585Z,41.35
2022-07-29T10:39:18.374Z,41.42
2022-07-29T10:42:20.004Z,40.50
2022-07-29T10:44:47.696Z,41.07
2022-07-29T10:47:28.005Z,41.00
2022-07-29T10:49:58.641Z,41.61
2022-07-29T10:52:59.510Z,40.37
2022-07-29T10:56:11.433Z,41.13
2022-07-29T10:58:42.412Z,38.99
2022-07-29T11:01:37.072Z,39.54
2022-07-29T11:04:06.186Z,39.27
2022-07-29T11:07:10.662Z,38.89
2022-07-29T11:09:38.489Z,39.39
2022-07-29T11:12:25.985Z,39.19
2022-07-29T11:14:53.079Z,39.36
2022-07-29T11:17:19.825Z,38.94
2022-07-29T11:19:52.107Z,38.10
2022-07-29T11:22:35.147Z,38.67
2022-07-29T11:25:50.305Z,38.57
2022-07-29T11:28:22.960Z,38.37
2022-07-29T11:30:54.199Z,38.94
2022-07-29T11:33:54.581Z,39.27
2022-07-29T11:36:20.088Z,38.44
2022-07-29T11:39:27.037Z,39.00
2022-07-29T11:42:28.343Z,38.28
2022-07-29T11:45:44.273Z,37.96
2022-07-29T11:50:49.509Z,36.69
2022-07-29T11:53:16.503Z,35.51
2022-07-29T11:55:51.217Z,35.01
2022-07-29T11:58:24.853Z,35.26
2022-07-29T12:00:52.631Z,33.31
2022-07-29T12:03:35.387Z,34.58
2022-07-29T12:06:04.077Z,33.91
2022-07-29T12:08:31.189Z,32.96
2022-07-29T12:10:57.823Z,33.49
2022-07-29T12:13:37.663Z,32.72
2022-07-29T12:16:07.453Z,32.03
2022-07-29T12:18:34.006Z,31.81
2022-07-29T12:21:05.307Z,32.76
2022-07-29T12:23:34.978Z,32.09
2022-07-29T12:26:04.627Z,32.89
2022-07-29T12:28:32.065Z,31.17
2022-07-29T12:30:58.710Z,30.63
2022-07-29T12:33:28.582Z,31.37
2022-07-29T12:36:09.429Z,31.45
2022-07-29T12:38:41.585Z,30.56
2022-07-29T12:41:08.122Z,30.75
2022-07-29T12:43:34.589Z,31.72
2022-07-29T12:46:15.743Z,31.65
2022-07-29T12:48:44.070Z,30.60
2022-07-29T12:51:12.834Z,30.85
2022-07-29T12:53:39.401Z,31.01
2022-07-29T12:56:20.770Z,30.13
2022-07-29T12:58:53.540Z,30.08
2022-07-29T13:01:22.316Z,30.30
2022-07-29T13:03:57.608Z,29.42
2022-07-29T13:06:30.471Z,30.11
2022-07-29T13:09:08.164Z,29.86
2022-07-29T13:11:48.150Z,30.14
2022-07-29T13:14:32.687Z,30.46
2022-07-29T13:17:13.323Z,30.02
2022-07-29T13:19:45.500Z,29.84
2022-07-29T13:22:14.234Z,29.32
2022-07-29T13:24:51.490Z,29.73
2022-07-29T13:27:20.205Z,29.00
2022-07-29T13:29:47.486Z,29.72
2022-07-29T13:32:14.877Z,29.40
2022-07-29T13:34:41.951Z,29.78
2022-07-29T13:37:08.517Z,29.93
2022-07-29T13:39:35.082Z,29.71
2022-07-29T13:42:02.120Z,29.99
2022-07-29T13:44:28.689Z,29.75
2022-07-29T13:46:55.148Z,29.49
2022-07-29T13:49:21.645Z,29.65
2022-07-29T13:51:48.190Z,28.80
2022-07-29T13:54:14.718Z,28.82
2022-07-29T13:56:44.345Z,28.96
2022-07-29T13:59:13.154Z,28.66
2022-07-29T14:01:42.622Z,28.95
2022-07-29T14:04:10.828Z,27.68
2022-07-29T14:06:40.577Z,28.80
2022-07-29T14:09:10.146Z,28.96
2022-07-29T14:11:37.295Z,28.47
2022-07-29T14:14:03.926Z,28.33
2022-07-29T14:16:30.561Z,27.58
2022-07-29T14:18:57.159Z,28.03
2022-07-29T14:21:23.799Z,27.91
2022-07-29T14:23:53.100Z,27.87
2022-07-29T14:26:24.215Z,27.93
2022-07-29T14:28:51.168Z,27.73
2022-07-29T14:31:17.834Z,26.61
2022-07-29T14:33:46.244Z,27.09
2022-07-29T14:36:17.255Z,26.64
2022-07-29T14:38:44.530Z,25.72
2022-07-29T14:41:11.169Z,25.94
2022-07-29T14:43:37.854Z,26.19
2022-07-29T14:46:08.314Z,26.56
2022-07-29T14:48:35.126Z,26.25
2022-07-29T14:51:04.718Z,25.42
2022-07-29T14:53:31.669Z,24.88
2022-07-29T14:56:10.293Z,25.15
2022-07-29T14:58:51.512Z,24.71
2022-07-29T15:01:18.348Z,24.45
2022-07-29T15:03:44.955Z,24.38
2022-07-29T15:06:11.627Z,24.76
2022-07-29T15:08:38.431Z,24.47
2022-07-29T15:11:05.037Z,24.21
2022-07-29T15:13:31.548Z,24.31
2022-07-29T15:16:00.222Z,24.92
2022-07-29T15:18:29.297Z,24.96
2022-07-29T15:20:55.796Z,24.33
2022-07-29T15:23:22.431Z,24.47
2022-07-29T15:25:50.008Z,24.09
2022-07-29T15:28:16.579Z,23.92
2022-07-29T15:30:43.520Z,23.60
2022-07-29T15:33:10.648Z,24.53
2022-07-29T15:35:40.586Z,24.92
2022-07-29T15:38:07.956Z,24.97
2022-07-29T15:40:34.643Z,24.21
2022-07-29T15:43:06.871Z,25.35
2022-07-29T15:46:06.805Z,23.75
2022-07-29T15:48:33.593Z,23.97
2022-07-29T15:51:01.028Z,23.78
2022-07-29T15:53:27.547Z,23.92
2022-07-29T15:55:54.183Z,23.43
2022-07-29T15:58:20.815Z,22.60
2022-07-29T16:00:48.028Z,23.14
2022-07-29T16:03:18.091Z,23.12
2022-07-29T16:05:44.747Z,23.87
2022-07-29T16:08:11.333Z,21.98
2022-07-29T16:10:37.990Z,22.08
2022-07-29T16:13:07.414Z,23.06
2022-07-29T16:15:34.059Z,22.43
2022-07-29T16:18:00.895Z,21.87
2022-07-29T16:20:30.256Z,22.69
2022-07-29T16:22:56.928Z,22.66
2022-07-29T16:25:38.361Z,22.01
2022-07-29T16:28:13.352Z,22.85
2022-07-29T16:30:39.984Z,22.30
2022-07-29T16:33:08.479Z,22.28
2022-07-29T16:35:39.530Z,21.64
2022-07-29T16:38:06.829Z,21.93
2022-07-29T16:40:35.917Z,22.46
2022-07-29T16:43:02.757Z,22.31
2022-07-29T16:45:32.670Z,21.87
2022-07-29T16:48:12.307Z,22.13
2022-07-29T16:50:39.640Z,22.00
2022-07-29T16:53:06.564Z,21.16
2022-07-29T16:55:33.500Z,21.13
2022-07-29T16:58:00.099Z,21.19
2022-07-29T17:00:26.651Z,21.39
2022-07-29T17:02:53.203Z,22.25
2022-07-29T17:05:19.833Z,22.50
2022-07-29T17:07:46.510Z,22.32
2022-07-29T17:10:13.283Z,21.97
2022-07-29T17:12:41.138Z,22.04
2022-07-29T17:15:09.975Z,21.77
2022-07-29T17:17:39.283Z,21.91
2022-07-29T17:20:22.198Z,21.86
2022-07-29T17:22:48.771Z,21.89
2022-07-29T17:25:20.446Z,22.72
2022-07-29T17:27:51.266Z,22.72
2022-07-29T17:30:18.290Z,22.88
2022-07-29T17:32:44.871Z,22.12
2022-07-29T17:35:31.178Z,22.95
2022-07-29T17:38:00.141Z,22.59
2022-07-29T17:40:26.670Z,22.44
2022-07-29T17:42:53.275Z,22.58
2022-07-29T17:45:19.820Z,23.13
2022-07-29T17:47:47.833Z,22.38
2022-07-29T17:50:14.566Z,22.82
2022-07-29T17:52:41.756Z,24.16
2022-07-29T17:55:10.347Z,26.04
2022-07-29T17:57:36.903Z,27.73
2022-07-29T18:00:05.509Z,28.80
2022-07-29T18:02:37.627Z,29.16
2022-07-29T18:05:05.269Z,30.82
2022-07-29T18:07:31.818Z,31.25
2022-07-29T18:10:00.550Z,32.17
2022-07-29T18:12:27.618Z,32.81
2022-07-29T18:14:54.066Z,33.64
2022-07-29T18:17:20.524Z,35.07
2022-07-29T18:19:48.224Z,34.96
2022-07-29T18:22:15.220Z,35.81
2022-07-29T18:24:44.661Z,36.60
2022-07-29T18:27:11.209Z,36.40
2022-07-29T18:29:37.882Z,37.45
2022-07-29T18:32:05.011Z,38.07
2022-07-29T18:34:32.159Z,38.76
2022-07-29T18:37:01.822Z,38.91
2022-07-29T18:39:29.408Z,39.33
2022-07-29T18:41:56.034Z,40.92
2022-07-29T18:44:24.972Z,40.93
2022-07-29T18:46:54.352Z,41.50
2022-07-29T18:49:21.906Z,41.75
2022-07-29T18:51:49.816Z,42.85
2022-07-29T18:54:20.179Z,42.92
2022-07-29T18:56:47.756Z,44.07
2022-07-29T18:59:19.758Z,44.54
2022-07-29T19:01:47.425Z,44.39
2022-07-29T19:04:14.732Z,45.40
2022-07-29T19:06:44.903Z,45.90
2022-07-29T19:09:11.484Z,45.91
2022-07-29T19:11:38.703Z,45.87
2022-07-29T19:14:06.302Z,45.55
2022-07-29T19:16:34.088Z,45.37
2022-07-29T19:19:03.462Z,45.67
2022-07-29T19:21:30.529Z,45.79
2022-07-29T19:24:01.608Z,45.98
2022-07-29T19:26:36.579Z,45.86
2022-07-29T19:29:04.129Z,46.77
2022-07-29T19:31:33.286Z,47.46
2022-07-29T19:34:03.017Z,47.40
2022-07-29T19:36:31.855Z,48.38
2022-07-29T19:38:59.953Z,48.39
2022-07-29T19:41:27.375Z,48.65
2022-07-29T19:43:54.203Z,49.48
2022-07-29T19:46:24.575Z,50.05
2022-07-29T19:48:51.099Z,48.78
2022-07-29T19:51:17.655Z,51.53
2022-07-29T19:53:44.193Z,52.36
2022-07-29T19:56:13.762Z,51.93
2022-07-29T19:58:41.746Z,52.99
2022-07-29T20:01:10.960Z,54.13
2022-07-29T20:03:40.547Z,53.72
2022-07-29T20:06:07.669Z,54.30
2022-07-29T20:08:34.365Z,55.10
2022-07-29T20:11:00.948Z,55.19
2022-07-29T20:13:27.550Z,54.10
2022-07-29T20:15:54.128Z,56.08
2022-07-29T20:18:20.688Z,56.13
2022-07-29T20:20:48.192Z,57.04
2022-07-29T20:23:16.002Z,56.86
2022-07-29T20:25:42.635Z,56.59
2022-07-29T20:28:09.150Z,57.08
2022-07-29T20:30:35.679Z,58.66
2022-07-29T20:33:05.172Z,58.06
2022-07-29T20:35:31.896Z,58.35
2022-07-29T20:37:58.474Z,59.52
2022-07-29T20:40:26.662Z,59.32
2022-07-29T20:42:54.728Z,59.34
2022-07-29T20:45:25.616Z,60.00
2022-07-29T20:47:52.819Z,60.88
2022-07-29T20:50:23.869Z,60.70
2022-07-29T20:52:51.619Z,61.85
2022-07-29T20:55:18.180Z,61.72
2022-07-29T20:57:44.688Z,62.56
2022-07-29T21:00:11.950Z,62.17
2022-07-29T21:02:38.878Z,63.12
2022-07-29T21:05:08.880Z,63.52
2022-07-29T21:07:35.686Z,64.10
2022-07-29T21:10:02.450Z,64.93
2022-07-29T21:12:30.193Z,64.57
2022-07-29T21:15:13.592Z,65.00
2022-07-29T21:17:46.419Z,65.57
2022-07-29T21:20:15.437Z,65.81
2022-07-29T21:22:42.419Z,65.73
2022-07-29T21:25:10.708Z,66.43
2022-07-29T21:27:56.275Z,67.29
2022-07-29T21:30:23.012Z,67.11
2022-07-29T21:32:49.533Z,67.33
2022-07-29T21:35:35.758Z,67.31
2022-07-29T21:38:02.832Z,67.85
2022-07-29T21:40:31.525Z,68.65
2022-07-29T21:42:58.107Z,69.01
2022-07-29T21:45:25.491Z,69.56
2022-07-29T21:47:52.054Z,69.58
2022-07-29T21:50:18.815Z,69.94
2022-07-29T21:52:45.452Z,69.67
2022-07-29T21:55:13.626Z,70.32
2022-07-29T21:57:40.460Z,70.51
2022-07-29T22:00:10.366Z,71.13
2022-07-29T22:02:37.094Z,70.16
2022-07-29T22:05:04.161Z,70.48
2022-07-29T22:07:54.672Z,70.66
2022-07-29T22:10:17.347Z,70.14
2022-07-29T22:12:43.823Z,71.18
2022-07-29T22:15:11.220Z,71.26
2022-07-29T22:17:39.770Z,71.29
2022-07-29T22:20:06.699Z,71.39
2022-07-29T22:22:33.209Z,71.22
2022-07-29T22:24:59.790Z,71.37
2022-07-29T22:27:26.289Z,70.76
2022-07-29T22:29:52.737Z,71.38
2022-07-29T22:32:19.320Z,70.60
2022-07-29T22:34:46.706Z,71.14
2022-07-29T22:37:13.250Z,71.80
2022-07-29T22:39:39.721Z,71.88
2022-07-29T22:42:06.368Z,71.71
2022-07-29T22:44:33.247Z,72.31
2022-07-29T22:47:00.733Z,72.79
2022-07-29T22:49:28.556Z,73.31
2022-07-29T22:51:55.036Z,73.49
2022-07-29T22:54:21.759Z,73.48
2022-07-29T22:56:48.452Z,73.66
2022-07-29T22:59:14.922Z,74.20
2022-07-29T23:01:41.437Z,73.94
2022-07-29T23:04:07.993Z,74.59
2022-07-29T23:06:34.632Z,73.80
2022-07-29T23:09:01.156Z,73.88
2022-07-29T23:11:28.285Z,74.35
2022-07-29T23:13:54.710Z,74.75
2022-07-29T23:16:26.447Z,75.19
2022-07-29T23:18:53.861Z,74.96
2022-07-29T23:21:20.934Z,75.01
2022-07-29T23:23:48.493Z,74.89
2022-07-29T23:26:16.833Z,75.06
2022-07-29T23:28:44.692Z,75.41
2022-07-29T23:31:11.644Z,75.65
2022-07-29T23:33:38.219Z,75.70
2022-07-29T23:36:04.749Z,75.57
2022-07-29T23:38:31.311Z,75.96
2022-07-29T23:40:58.712Z,76.18
2022-07-29T23:43:25.266Z,76.58
2022-07-29T23:45:51.787Z,76.35
2022-07-29T23:48:20.791Z,76.70
2022-07-29T23:50:47.287Z,76.80
2022-07-29T23:53:13.764Z,76.58
2022-07-29T23:55:40.243Z,77.31
2022-07-29T23:58:06.689Z,77.26
